TimePST,TemperatureF,Dew PointF,Humidity,Sea Level PressureIn,VisibilityMPH,Wind Direction,Wind SpeedMPH,Gust SpeedMPH,PrecipitationIn,Events,Conditions,WindDirDegrees,DateUTC
12:06 AM,39.2,37.4,93,30.26,0.8,Calm,Calm,-,N/A,,Clear,0,2011-11-08 08:06:00
12:26 AM,37.4,35.6,93,30.26,1.0,Calm,Calm,-,N/A,,Mist,0,2011-11-08 08:26:00
12:41 AM,35.6,35.6,100,30.26,0.5,Calm,Calm,-,N/A,Fog,Fog,0,2011-11-08 08:41:00
1:00 AM,35.6,33.8,93,30.26,0.5,WNW,3.5,-,N/A,Fog,Fog,300,2011-11-08 09:00:00
1:09 AM,35.6,33.8,93,30.26,2.0,WNW,3.5,-,N/A,,Scattered Clouds,290,2011-11-08 09:09:00
1:18 AM,35.6,33.8,93,30.26,1.5,Calm,Calm,-,N/A,,Scattered Clouds,0,2011-11-08 09:18:00
1:25 AM,35.6,33.8,93,30.27,2.0,Calm,Calm,-,N/A,,Mostly Cloudy,0,2011-11-08 09:25:00
1:34 AM,35.6,33.8,93,30.26,3.0,Calm,Calm,-,N/A,,Mostly Cloudy,0,2011-11-08 09:34:00
1:36 AM,35.6,33.8,93,30.26,1.8,Calm,Calm,-,N/A,,Mostly Cloudy,0,2011-11-08 09:36:00
1:49 AM,37.4,35.6,93,30.26,0.8,Calm,Calm,-,N/A,,Mist,0,2011-11-08 09:49:00
1:53 AM,36.0,36.0,100,30.25,0.8,Calm,Calm,-,N/A,,Mist,0,2011-11-08 09:53:00
2:03 AM,35.6,33.8,93,30.27,1.2,WNW,3.5,-,N/A,,Partly Cloudy,290,2011-11-08 10:03:00
2:07 AM,35.6,33.8,93,30.27,3.0,West,3.5,-,N/A,,Clear,280,2011-11-08 10:07:00
2:12 AM,35.6,33.8,93,30.27,2.5,WNW,4.6,-,N/A,,Partly Cloudy,290,2011-11-08 10:12:00
2:20 AM,35.6,33.8,93,30.27,1.5,WNW,3.5,-,N/A,,Partly Cloudy,300,2011-11-08 10:20:00
2:53 AM,34.0,34.0,100,30.25,7.0,NW,4.6,-,N/A,,Clear,320,2011-11-08 10:53:00
3:27 AM,33.8,33.8,100,30.27,9.0,Calm,Calm,-,N/A,,Partly Cloudy,0,2011-11-08 11:27:00
3:39 AM,33.8,33.8,100,30.27,2.5,Calm,Calm,-,N/A,,Mostly Cloudy,0,2011-11-08 11:39:00
3:53 AM,34.0,33.1,96,30.25,2.0,Calm,Calm,-,N/A,,Scattered Clouds,0,2011-11-08 11:53:00
4:03 AM,33.8,32.0,93,30.26,10.0,Calm,Calm,-,N/A,,Partly Cloudy,0,2011-11-08 12:03:00
4:53 AM,34.0,33.1,96,30.27,10.0,Calm,Calm,-,N/A,,Clear,0,2011-11-08 12:53:00
5:47 AM,33.8,32.0,93,30.29,1.8,Calm,Calm,-,N/A,,Clear,0,2011-11-08 13:47:00
6:09 AM,32.0,30.2,93,30.30,10.0,Calm,Calm,-,N/A,,Mostly Cloudy,0,2011-11-08 14:09:00
6:17 AM,33.8,30.2,87,30.30,1.8,Calm,Calm,-,N/A,,Mostly Cloudy,0,2011-11-08 14:17:00
6:36 AM,33.8,32.0,93,30.30,0.8,Calm,Calm,-,N/A,,Mist,0,2011-11-08 14:36:00
6:40 AM,32.0,30.2,93,30.30,1.2,Calm,Calm,-,N/A,,Partly Cloudy,0,2011-11-08 14:40:00
6:45 AM,32.0,30.2,93,30.30,3.0,Calm,Calm,-,N/A,,Partly Cloudy,0,2011-11-08 14:45:00
6:53 AM,33.1,32.0,96,30.29,10.0,Calm,Calm,-,N/A,Fog,Patches of Fog,0,2011-11-08 14:53:00
7:00 AM,32.0,30.2,93,30.31,2.0,Calm,Calm,-,N/A,Fog,Patches of Fog,0,2011-11-08 15:00:00
7:07 AM,32.0,30.2,93,30.31,10.0,Calm,Calm,-,N/A,Fog,Patches of Fog,0,2011-11-08 15:07:00
7:53 AM,34.0,34.0,100,30.30,10.0,Calm,Calm,-,N/A,Fog,Patches of Fog,0,2011-11-08 15:53:00
8:00 AM,35.6,35.6,100,30.32,1.8,Calm,Calm,-,N/A,Fog,Patches of Fog,0,2011-11-08 16:00:00
8:07 AM,37.4,35.6,93,30.32,10.0,Calm,Calm,-,N/A,Fog,Patches of Fog,0,2011-11-08 16:07:00
8:53 AM,42.1,41.0,96,30.32,10.0,Calm,Calm,-,N/A,Fog,Patches of Fog,0,2011-11-08 16:53:00
9:53 AM,48.9,43.0,80,30.32,10.0,Calm,Calm,-,N/A,,Clear,0,2011-11-08 17:53:00
10:53 AM,54.0,44.1,69,30.31,10.0,SSW,3.5,-,N/A,,Partly Cloudy,200,2011-11-08 18:53:00
11:53 AM,57.0,43.0,59,30.28,10.0,SSW,3.5,-,N/A,,Partly Cloudy,200,2011-11-08 19:53:00
12:53 PM,59.0,43.0,55,30.27,10.0,SW,3.5,-,N/A,,Partly Cloudy,220,2011-11-08 20:53:00
1:53 PM,62.1,42.1,48,30.24,10.0,SSW,4.6,-,N/A,,Partly Cloudy,200,2011-11-08 21:53:00
2:53 PM,62.1,39.9,44,30.24,10.0,SW,6.9,-,N/A,,Scattered Clouds,230,2011-11-08 22:53:00
3:53 PM,62.1,36.0,38,30.23,10.0,SSW,3.5,-,N/A,,Clear,200,2011-11-08 23:53:00
4:53 PM,59.0,37.9,46,30.23,10.0,Calm,Calm,-,N/A,,Clear,0,2011-11-09 00:53:00
5:53 PM,51.1,39.9,66,30.25,10.0,Calm,Calm,-,N/A,,Clear,0,2011-11-09 01:53:00
6:53 PM,48.9,41.0,74,30.26,10.0,Calm,Calm,-,N/A,,Clear,0,2011-11-09 02:53:00
7:53 PM,45.0,39.9,82,30.26,10.0,Calm,Calm,-,N/A,,Clear,0,2011-11-09 03:53:00
9:53 PM,42.1,39.9,92,30.28,10.0,Calm,Calm,-,N/A,,Clear,0,2011-11-09 05:53:00
10:53 PM,39.9,39.0,97,30.27,10.0,NW,3.5,-,N/A,,Clear,320,2011-11-09 06:53:00
11:53 PM,39.0,37.9,96,30.27,6.0,NNW,3.5,-,N/A,,Clear,330,2011-11-09 07:53:00